Time;durP1;ratioP1;P1;durP2;ratioP2;P2;SDS_P1;SDS_P2;PMS_P1;PMS_P2;Temp;Humidity;BMP_temperature;BMP_pressure;BME280_temperature;BME280_humidity;BME280_pressure;Samples;Min_cycle;Max_cycle;Signal;HPM_P1;HPM_P2
2021/04/29 00:00:11;;;;;;;52.63;25.48;;;7.70;53.90;;;;;;5144521;27;20026;-76
2021/04/29 00:02:37;;;;;;;68.05;33.03;;;7.70;54.10;;;;;;5142646;27;20061;-77
2021/04/29 00:05:05;;;;;;;57.90;30.48;;;7.70;54.20;;;;;;5143204;27;20050;-77
2021/04/29 00:07:31;;;;;;;70.78;37.63;;;7.70;54.40;;;;;;5144424;27;20014;-77
2021/04/29 00:09:57;;;;;;;112.60;55.53;;;7.70;54.50;;;;;;5142295;27;20460;-78
2021/04/29 00:12:23;;;;;;;98.85;47.95;;;7.70;54.50;;;;;;5142785;27;20023;-76
2021/04/29 00:14:49;;;;;;;91.75;44.55;;;7.70;54.50;;;;;;5125768;27;20156;-77
2021/04/29 00:17:14;;;;;;;242.88;157.90;;;7.70;54.60;;;;;;5155248;27;20136;-77
2021/04/29 00:19:40;;;;;;;89.38;50.85;;;7.70;55.30;;;;;;5136551;27;20027;-77
2021/04/29 00:22:06;;;;;;;84.95;39.70;;;7.70;54.70;;;;;;5152347;27;20030;-77
2021/04/29 00:24:32;;;;;;;96.00;49.40;;;7.70;54.80;;;;;;5143449;27;20030;-77
2021/04/29 00:26:58;;;;;;;79.25;39.42;;;7.70;54.90;;;;;;5143637;27;20076;-77
2021/04/29 00:29:24;;;;;;;91.18;46.15;;;7.70;55.00;;;;;;5141976;27;20039;-78
2021/04/29 00:31:51;;;;;;;82.03;40.50;;;7.70;55.10;;;;;;5143545;27;20038;-78
2021/04/29 00:34:17;;;;;;;91.82;44.20;;;7.70;55.20;;;;;;5143798;27;20365;-77
2021/04/29 00:36:42;;;;;;;35.67;19.10;;;7.60;55.20;;;;;;5142540;27;20027;-77
2021/04/29 00:39:08;;;;;;;61.17;29.75;;;7.60;55.40;;;;;;5144242;27;20034;-77
2021/04/29 00:41:34;;;;;;;40.40;21.15;;;7.60;55.50;;;;;;5143453;27;20565;-77
2021/04/29 00:44:00;;;;;;;29.02;16.88;;;7.60;55.60;;;;;;5142500;27;20497;-78
2021/04/29 00:46:28;;;;;;;25.52;15.38;;;7.60;55.80;;;;;;5144325;27;20106;-77
2021/04/29 00:48:54;;;;;;;17.60;10.55;;;7.70;56.00;;;;;;5143199;27;20098;-77
2021/04/29 00:51:21;;;;;;;12.23;6.45;;;7.70;56.00;;;;;;5142347;27;20207;-77
2021/04/29 00:53:47;;;;;;;41.17;22.27;;;7.70;56.00;;;;;;5151118;27;20038;-76
2021/04/29 00:56:14;;;;;;;13.40;9.48;;;7.70;56.00;;;;;;5136458;27;20056;-77
2021/04/29 00:58:40;;;;;;;20.27;13.32;;;7.70;56.10;;;;;;5154806;27;20019;-77
2021/04/29 01:01:07;;;;;;;10.80;6.80;;;7.70;56.10;;;;;;5154891;27;20026;-77
2021/04/29 01:03:42;;;;;;;17.10;10.65;;;7.70;56.20;;;;;;5136318;27;20023;-77
2021/04/29 01:06:19;;;;;;;;;;;7.80;56.40;;;;;;5155429;27;20101;-77
2021/04/29 01:09:00;;;;;;;23.55;13.00;;;7.80;55.90;;;;;;5154811;27;19907;-77
2021/04/29 01:11:31;;;;;;;26.65;14.38;;;7.70;55.80;;;;;;5154514;27;20026;-77
2021/04/29 01:14:00;;;;;;;83.05;41.92;;;7.70;56.10;;;;;;5154651;27;20415;-77
2021/04/29 01:16:27;;;;;;;129.27;67.22;;;7.70;56.30;;;;;;5154877;27;20075;-77
2021/04/29 01:18:55;;;;;;;144.90;69.30;;;7.70;56.60;;;;;;5155014;27;20113;-77
2021/04/29 01:21:24;;;;;;;78.65;39.22;;;7.70;56.50;;;;;;5154732;27;20026;-76
2021/04/29 01:24:11;;;;;;;26.38;14.63;;;7.70;56.70;;;;;;5157609;27;20026;-77
2021/04/29 01:26:48;;;;;;;20.95;12.20;;;7.70;56.90;;;;;;5149476;27;20019;-77
2021/04/29 01:29:18;;;;;;;19.30;12.85;;;7.80;56.90;;;;;;5157973;27;20039;-77
2021/04/29 01:31:46;;;;;;;21.02;11.73;;;7.80;56.90;;;;;;5158259;27;20039;-77
2021/04/29 01:34:15;;;;;;;31.67;17.60;;;7.80;56.90;;;;;;5158374;27;20079;-77
2021/04/29 01:36:42;;;;;;;35.97;17.30;;;7.80;57.00;;;;;;5158267;27;20508;-77
2021/04/29 01:39:11;;;;;;;37.97;19.52;;;7.80;57.00;;;;;;5158180;27;20019;-77
2021/04/29 01:41:40;;;;;;;29.50;17.27;;;7.80;57.10;;;;;;5158033;27;20365;-77
2021/04/29 01:44:08;;;;;;;28.70;16.10;;;7.80;57.10;;;;;;5157844;27;20015;-76
2021/04/29 01:46:35;;;;;;;54.30;28.85;;;7.80;57.20;;;;;;5157890;27;20022;-77
2021/04/29 01:49:02;;;;;;;51.75;27.42;;;7.80;57.20;;;;;;5157418;27;20026;-77
2021/04/29 01:51:29;;;;;;;32.60;17.08;;;7.80;57.30;;;;;;5157798;27;20379;-77
2021/04/29 01:53:55;;;;;;;29.00;16.90;;;7.80;57.30;;;;;;5158012;27;20038;-77
2021/04/29 01:56:22;;;;;;;45.17;22.73;;;7.80;57.40;;;;;;5158044;27;20050;-77
2021/04/29 01:58:48;;;;;;;45.92;21.42;;;7.80;57.40;;;;;;5157408;27;20019;-77
2021/04/29 02:01:13;;;;;;;46.83;21.20;;;7.80;57.40;;;;;;5157978;27;20093;-77
2021/04/29 02:03:40;;;;;;;25.73;13.50;;;7.90;57.60;;;;;;5157696;27;20065;-77
2021/04/29 02:06:06;;;;;;;36.80;22.25;;;7.90;57.60;;;;;;5157750;27;20030;-77
2021/04/29 02:08:32;;;;;;;31.02;18.67;;;7.90;57.70;;;;;;5157201;27;20031;-77
2021/04/29 02:10:59;;;;;;;25.90;14.77;;;7.90;57.80;;;;;;5156873;27;20065;-77
2021/04/29 02:13:27;;;;;;;25.80;12.57;;;7.90;57.90;;;;;;5157366;27;20034;-78
2021/04/29 02:16:03;;;;;;;21.42;13.23;;;7.90;57.90;;;;;;5157392;27;20022;-77
2021/04/29 02:18:30;;;;;;;28.02;15.73;;;7.90;58.00;;;;;;5157238;27;20019;-77
2021/04/29 02:20:59;;;;;;;23.80;13.93;;;7.90;57.90;;;;;;5157487;27;20124;-77
2021/04/29 02:23:25;;;;;;;22.35;13.60;;;7.90;58.00;;;;;;5157638;27;20529;-77
2021/04/29 02:25:57;;;;;;;31.40;19.02;;;7.90;58.10;;;;;;5157150;27;20478;-77
2021/04/29 02:28:24;;;;;;;37.58;20.17;;;7.90;58.20;;;;;;5138874;27;20026;-77
2021/04/29 02:30:51;;;;;;;41.88;23.58;;;7.90;57.90;;;;;;5157093;27;20457;-77
2021/04/29 02:33:17;;;;;;;39.63;21.80;;;7.90;57.90;;;;;;5156890;27;20022;-77
2021/04/29 02:35:45;;;;;;;32.50;20.38;;;7.80;57.90;;;;;;5156461;27;20015;-78
2021/04/29 02:38:15;;;;;;;33.50;19.38;;;7.80;58.00;;;;;;5156394;27;20069;-76
2021/04/29 02:40:42;;;;;;;30.80;17.63;;;7.80;58.80;;;;;;5138173;27;20055;-77
2021/04/29 02:43:12;;;;;;;26.90;16.48;;;7.70;58.20;;;;;;5138801;27;20026;-78
2021/04/29 02:45:38;;;;;;;42.72;22.17;;;7.70;58.30;;;;;;5156333;27;20129;-77
2021/04/29 02:48:04;;;;;;;50.33;21.98;;;7.70;58.60;;;;;;5138010;27;20138;-77
2021/04/29 02:50:30;;;;;;;51.83;23.73;;;7.70;58.80;;;;;;5156135;27;20083;-77
2021/04/29 02:52:58;;;;;;;40.03;28.13;;;7.80;58.90;;;;;;5156178;27;20448;-78
2021/04/29 02:55:24;;;;;;;42.58;31.40;;;7.80;58.90;;;;;;5156379;27;20464;-78
2021/04/29 02:57:58;;;;;;;53.58;34.33;;;7.80;59.00;;;;;;5156244;27;20014;-77
2021/04/29 03:00:25;;;;;;;38.85;24.63;;;7.90;59.00;;;;;;5156098;27;20099;-77
2021/04/29 03:02:51;;;;;;;34.83;20.50;;;7.90;59.00;;;;;;5156283;27;20087;-77
2021/04/29 03:05:17;;;;;;;27.23;16.00;;;8.00;59.00;;;;;;5156431;27;20030;-76
2021/04/29 03:07:44;;;;;;;24.83;13.70;;;8.00;58.90;;;;;;5156157;27;20026;-77
2021/04/29 03:10:11;;;;;;;24.60;13.98;;;8.00;58.80;;;;;;5137634;27;20027;-77
2021/04/29 03:12:38;;;;;;;24.63;15.05;;;8.10;58.80;;;;;;5156239;27;20023;-77
2021/04/29 03:15:06;;;;;;;21.05;13.50;;;8.10;58.70;;;;;;5156169;27;20130;-78
2021/04/29 03:17:32;;;;;;;23.95;14.18;;;8.10;58.80;;;;;;5156042;27;20027;-78
2021/04/29 03:19:58;;;;;;;21.48;13.77;;;8.10;58.70;;;;;;5155645;27;20067;-78
2021/04/29 03:22:23;;;;;;;19.77;13.32;;;8.10;58.60;;;;;;5155709;27;20023;-77
2021/04/29 03:24:50;;;;;;;21.25;14.10;;;8.20;58.70;;;;;;5155622;27;20037;-77
2021/04/29 03:27:19;;;;;;;21.90;13.90;;;8.20;58.60;;;;;;5137173;27;20114;-77
2021/04/29 03:29:44;;;;;;;20.10;14.07;;;8.30;58.70;;;;;;5155517;27;20054;-77
2021/04/29 03:32:10;;;;;;;23.45;14.05;;;8.30;58.60;;;;;;5137051;27;20118;-77
2021/04/29 03:34:36;;;;;;;23.63;14.77;;;8.40;58.70;;;;;;5136967;27;20068;-77
2021/04/29 03:37:02;;;;;;;29.02;16.58;;;8.50;58.70;;;;;;5155344;27;20026;-77
2021/04/29 03:39:28;;;;;;;28.08;15.25;;;8.50;58.80;;;;;;5154909;27;20031;-77
2021/04/29 03:41:53;;;;;;;26.95;15.75;;;8.60;59.00;;;;;;5156734;27;20026;-77
2021/04/29 03:44:19;;;;;;;22.73;15.43;;;8.60;59.30;;;;;;5157159;27;20388;-76
2021/04/29 03:46:45;;;;;;;26.48;15.95;;;8.60;59.50;;;;;;5156215;27;20031;-76
2021/04/29 03:49:10;;;;;;;25.98;15.77;;;8.70;59.80;;;;;;5136548;27;20027;-77
2021/04/29 03:51:36;;;;;;;26.95;14.90;;;8.80;59.90;;;;;;5137056;27;20030;-78
2021/04/29 03:54:02;;;;;;;23.98;14.63;;;8.80;59.80;;;;;;5155170;27;20080;-77
2021/04/29 03:56:28;;;;;;;27.67;16.00;;;8.90;59.70;;;;;;5155440;27;20345;-77
2021/04/29 03:58:54;;;;;;;24.30;15.57;;;9.00;59.50;;;;;;5154993;27;20098;-78
2021/04/29 04:01:19;;;;;;;28.23;15.77;;;9.10;59.40;;;;;;5154657;27;20026;-78
2021/04/29 04:03:45;;;;;;;24.60;15.52;;;9.30;59.40;;;;;;5155359;27;20030;-78
2021/04/29 04:06:12;;;;;;;25.05;15.98;;;9.40;59.50;;;;;;5154789;27;20056;-78
2021/04/29 04:08:38;;;;;;;25.23;15.95;;;9.60;59.50;;;;;;5154992;27;20127;-78
2021/04/29 04:11:04;;;;;;;25.60;16.55;;;9.80;59.50;;;;;;5154653;27;20390;-78
2021/04/29 04:13:29;;;;;;;23.50;15.90;;;10.00;59.40;;;;;;5154639;27;20022;-78
2021/04/29 04:15:55;;;;;;;25.15;14.77;;;10.20;59.40;;;;;;5154375;27;20030;-78
2021/04/29 04:18:21;;;;;;;26.13;16.17;;;10.50;59.50;;;;;;5155040;27;20358;-78
2021/04/29 04:20:46;;;;;;;22.75;14.95;;;10.60;59.40;;;;;;5123685;27;20027;-77
2021/04/29 04:23:12;;;;;;;21.38;14.43;;;10.90;59.60;;;;;;5144573;27;20027;-77
2021/04/29 04:25:38;;;;;;;22.88;14.70;;;11.10;59.50;;;;;;5144584;27;20027;-78
2021/04/29 04:28:04;;;;;;;42.28;16.10;;;11.30;59.50;;;;;;5143575;27;20115;-79
2021/04/29 04:30:30;;;;;;;36.67;15.52;;;11.50;59.40;;;;;;5143554;27;20046;-79
2021/04/29 04:32:56;;;;;;;28.30;14.60;;;11.70;59.50;;;;;;5145135;27;20030;-79
2021/04/29 04:35:22;;;;;;;33.60;15.27;;;11.90;59.40;;;;;;5134713;27;20413;-79
2021/04/29 04:37:48;;;;;;;22.92;13.68;;;12.10;59.40;;;;;;5134445;27;20019;-79
2021/04/29 04:40:14;;;;;;;21.15;13.38;;;12.30;59.40;;;;;;5145412;27;20087;-79
2021/04/29 04:42:40;;;;;;;22.10;13.20;;;12.40;59.20;;;;;;5136621;27;20476;-79
2021/04/29 04:45:08;;;;;;;22.52;12.82;;;12.40;59.20;;;;;;5133725;28;20031;-78
2021/04/29 04:47:34;;;;;;;21.58;12.65;;;12.50;59.30;;;;;;5133695;28;20026;-79
2021/04/29 04:50:00;;;;;;;23.08;12.93;;;12.60;59.40;;;;;;5133711;28;20039;-79
2021/04/29 04:52:26;;;;;;;16.88;11.57;;;12.70;59.60;;;;;;5133577;28;20023;-77
2021/04/29 04:54:53;;;;;;;23.30;13.07;;;12.90;59.60;;;;;;5133419;28;20032;-77
2021/04/29 04:57:20;;;;;;;18.60;13.02;;;12.90;59.60;;;;;;5136166;27;20087;-76
2021/04/29 04:59:46;;;;;;;15.93;11.75;;;13.00;59.80;;;;;;5138009;27;20027;-75
2021/04/29 05:02:12;;;;;;;16.55;11.77;;;13.10;60.00;;;;;;5137790;27;20096;-77
2021/04/29 05:04:38;;;;;;;18.35;11.55;;;13.20;60.00;;;;;;5138122;27;20358;-76
2021/04/29 05:07:04;;;;;;;18.13;12.02;;;13.30;60.10;;;;;;5137546;27;20146;-76
2021/04/29 05:09:30;;;;;;;15.20;11.25;;;13.30;60.30;;;;;;5137744;27;20032;-76
2021/04/29 05:11:58;;;;;;;16.08;11.00;;;13.30;60.20;;;;;;5134473;27;20063;-77
2021/04/29 05:14:24;;;;;;;13.70;10.43;;;13.40;60.20;;;;;;5136710;27;20027;-77
2021/04/29 05:16:50;;;;;;;14.23;10.57;;;13.40;60.20;;;;;;5136943;27;20015;-78
2021/04/29 05:19:16;;;;;;;15.98;10.85;;;13.50;60.10;;;;;;5137078;27;20483;-76
2021/04/29 05:21:42;;;;;;;19.52;11.38;;;13.50;59.70;;;;;;5117873;27;20023;-78
2021/04/29 05:24:08;;;;;;;13.50;10.48;;;13.50;59.50;;;;;;5136795;27;20525;-77
2021/04/29 05:26:34;;;;;;;17.08;11.02;;;13.50;59.60;;;;;;5136428;27;20411;-77
2021/04/29 05:29:00;;;;;;;14.80;10.63;;;13.50;59.70;;;;;;5136893;27;20066;-77
2021/04/29 05:31:26;;;;;;;17.38;11.73;;;13.50;59.60;;;;;;5134257;27;20031;-78
2021/04/29 05:33:52;;;;;;;19.88;11.93;;;13.50;59.20;;;;;;5135950;27;20072;-77
2021/04/29 05:36:17;;;;;;;17.52;11.25;;;13.50;58.90;;;;;;5136210;27;20067;-77
2021/04/29 05:38:43;;;;;;;17.92;11.90;;;13.50;58.20;;;;;;5135956;27;20448;-77
2021/04/29 05:41:09;;;;;;;13.50;10.23;;;13.50;57.30;;;;;;5136343;27;20088;-79
2021/04/29 05:43:34;;;;;;;16.83;11.23;;;13.50;56.70;;;;;;5136001;27;20042;-78
2021/04/29 05:46:00;;;;;;;16.83;10.85;;;13.50;56.40;;;;;;5136008;27;20023;-77
2021/04/29 05:48:26;;;;;;;18.42;11.38;;;13.60;56.10;;;;;;5136173;27;20422;-76
2021/04/29 05:50:52;;;;;;;16.25;11.75;;;13.70;55.70;;;;;;5135570;27;20050;-76
2021/04/29 05:53:17;;;;;;;17.85;12.52;;;13.70;55.50;;;;;;5147167;27;20033;-77
2021/04/29 05:55:43;;;;;;;16.05;11.95;;;13.70;55.40;;;;;;5154475;27;20421;-76
2021/04/29 05:58:09;;;;;;;16.23;11.60;;;13.80;55.40;;;;;;5136788;27;20019;-75
2021/04/29 06:00:35;;;;;;;21.40;12.00;;;13.80;55.20;;;;;;5136385;27;20035;-76
2021/04/29 06:03:02;;;;;;;14.23;9.50;;;13.80;55.10;;;;;;5136302;27;20157;-77
2021/04/29 06:05:27;;;;;;;19.63;12.23;;;13.90;54.50;;;;;;5136732;27;20399;-76
2021/04/29 06:07:58;;;;;;;16.15;10.85;;;13.90;54.40;;;;;;5138198;27;20110;-76
2021/04/29 06:10:24;;;;;;;16.00;11.52;;;14.00;54.30;;;;;;5147714;27;20037;-77
2021/04/29 06:12:49;;;;;;;20.67;10.35;;;14.00;54.20;;;;;;5146939;27;20200;-76
2021/04/29 06:15:16;;;;;;;14.38;10.45;;;14.20;54.10;;;;;;5146134;27;20105;-77
2021/04/29 06:17:42;;;;;;;14.57;9.63;;;14.30;53.50;;;;;;5145711;27;20120;-77
2021/04/29 06:20:08;;;;;;;14.65;8.57;;;14.40;52.80;;;;;;5148198;27;20033;-77
2021/04/29 06:22:34;;;;;;;13.82;8.48;;;14.50;51.80;;;;;;5143117;27;20460;-77
2021/04/29 06:24:59;;;;;;;15.93;8.45;;;14.70;51.00;;;;;;5125214;27;20036;-77
2021/04/29 06:27:25;;;;;;;13.02;7.43;;;14.70;50.00;;;;;;5142211;27;20375;-80
2021/04/29 06:29:51;;;;;;;10.52;8.07;;;14.80;49.60;;;;;;5144454;27;20047;-77
2021/04/29 06:32:17;;;;;;;11.80;8.02;;;14.90;49.20;;;;;;5126261;27;20037;-77
2021/04/29 06:34:42;;;;;;;15.35;8.07;;;14.90;48.70;;;;;;5146375;27;20023;-77
2021/04/29 06:37:08;;;;;;;14.45;8.55;;;15.00;48.60;;;;;;5143650;27;20027;-77
2021/04/29 06:39:34;;;;;;;12.88;8.23;;;15.10;48.30;;;;;;5153212;27;20200;-76
2021/04/29 06:41:59;;;;;;;13.68;8.10;;;15.20;48.10;;;;;;5156254;27;20460;-78
2021/04/29 06:44:25;;;;;;;13.43;7.85;;;15.30;47.60;;;;;;5156276;27;20097;-77
2021/04/29 06:46:51;;;;;;;14.50;7.07;;;15.20;47.10;;;;;;5152947;27;20035;-77
2021/04/29 06:49:16;;;;;;;16.90;8.43;;;15.30;47.00;;;;;;5156278;27;20468;-77
2021/04/29 06:51:42;;;;;;;11.18;7.10;;;15.20;46.70;;;;;;5137902;27;20114;-77
2021/04/29 06:54:08;;;;;;;10.02;6.32;;;15.30;46.50;;;;;;5118337;27;20031;-78
2021/04/29 06:56:35;;;;;;;11.63;6.53;;;15.30;46.00;;;;;;5117216;27;20388;-76
2021/04/29 06:59:05;;;;;;;8.95;6.32;;;15.30;45.80;;;;;;5138601;27;20027;-75
2021/04/29 07:01:31;;;;;;;13.50;6.38;;;15.30;45.70;;;;;;5150554;27;20019;-76
2021/04/29 07:03:58;;;;;;;10.20;7.00;;;15.40;45.60;;;;;;5155774;27;20477;-78
2021/04/29 07:06:24;;;;;;;10.25;6.90;;;15.50;45.60;;;;;;5137915;27;20029;-77
2021/04/29 07:08:50;;;;;;;11.55;6.20;;;15.60;45.20;;;;;;5153426;27;20027;-77
2021/04/29 07:11:17;;;;;;;7.18;5.70;;;15.70;44.70;;;;;;5139238;27;20299;-76
2021/04/29 07:13:42;;;;;;;7.78;5.60;;;15.70;44.20;;;;;;5156069;27;20019;-76
2021/04/29 07:16:08;;;;;;;7.18;5.22;;;15.70;44.00;;;;;;5137245;27;20026;-77
2021/04/29 07:18:34;;;;;;;10.07;6.43;;;15.70;43.90;;;;;;5137458;27;20195;-77
2021/04/29 07:21:00;;;;;;;13.38;6.07;;;15.60;44.00;;;;;;5106733;27;20045;-77
2021/04/29 07:23:26;;;;;;;10.55;5.95;;;15.70;44.20;;;;;;5138002;27;20068;-76
2021/04/29 07:25:52;;;;;;;12.15;6.40;;;15.80;43.90;;;;;;5142645;27;20028;-77
2021/04/29 07:28:18;;;;;;;7.25;5.68;;;15.90;43.80;;;;;;5126252;27;20022;-78
2021/04/29 07:30:45;;;;;;;10.25;5.85;;;16.00;43.50;;;;;;5144213;27;20051;-78
2021/04/29 07:33:11;;;;;;;8.32;5.72;;;16.10;43.30;;;;;;5142644;27;20511;-78
2021/04/29 07:35:38;;;;;;;10.65;6.20;;;16.30;43.30;;;;;;5126005;27;20044;-76
2021/04/29 07:38:04;;;;;;;8.93;5.55;;;16.40;43.20;;;;;;5143734;27;20011;-77
2021/04/29 07:40:31;;;;;;;8.77;5.47;;;16.70;43.00;;;;;;5124183;27;20027;-77
2021/04/29 07:42:57;;;;;;;13.98;5.45;;;16.90;42.60;;;;;;5142915;27;20044;-79
2021/04/29 07:45:23;;;;;;;8.15;5.25;;;17.00;42.40;;;;;;5143573;27;20103;-76
2021/04/29 07:47:49;;;;;;;10.35;5.57;;;17.00;42.10;;;;;;5144188;27;20482;-76
2021/04/29 07:50:15;;;;;;;9.57;5.43;;;17.10;42.20;;;;;;5123549;27;20031;-77
2021/04/29 07:52:42;;;;;;;12.90;6.28;;;17.20;42.00;;;;;;5151808;27;20026;-76
2021/04/29 07:55:09;;;;;;;9.45;5.25;;;17.40;42.00;;;;;;5136449;27;20023;-77
2021/04/29 07:57:35;;;;;;;8.20;5.60;;;17.60;41.40;;;;;;5155702;27;20468;-76
2021/04/29 08:00:01;;;;;;;12.52;5.53;;;17.70;41.20;;;;;;5155016;27;20036;-77
2021/04/29 08:02:27;;;;;;;7.38;5.03;;;17.80;41.00;;;;;;5155067;27;20397;-76
2021/04/29 08:04:52;;;;;;;11.90;4.63;;;17.90;40.50;;;;;;5155254;27;20075;-77
2021/04/29 08:07:18;;;;;;;10.35;5.50;;;17.80;40.50;;;;;;5136232;27;20042;-76
2021/04/29 08:09:44;;;;;;;11.48;5.60;;;17.90;40.50;;;;;;5138044;27;20466;-78
2021/04/29 08:12:09;;;;;;;8.75;5.50;;;18.00;40.50;;;;;;5142700;27;20039;-76
2021/04/29 08:14:35;;;;;;;7.97;5.03;;;18.20;40.40;;;;;;5143794;27;20019;-76
2021/04/29 08:17:01;;;;;;;8.90;5.07;;;18.40;40.20;;;;;;5142537;27;20083;-76
2021/04/29 08:19:27;;;;;;;6.80;4.97;;;18.60;39.90;;;;;;5142948;27;20025;-77
2021/04/29 08:21:52;;;;;;;8.77;5.47;;;19.00;39.60;;;;;;5144133;27;20095;-76
2021/04/29 08:24:18;;;;;;;9.70;5.35;;;19.10;39.20;;;;;;5141942;27;20039;-76
2021/04/29 08:26:44;;;;;;;6.93;5.05;;;19.50;39.10;;;;;;5143117;27;20030;-76
2021/04/29 08:29:09;;;;;;;12.82;6.55;;;20.00;38.40;;;;;;5143451;27;20047;-76
2021/04/29 08:31:35;;;;;;;16.58;6.65;;;20.30;37.50;;;;;;5123221;27;20027;-77
2021/04/29 08:34:01;;;;;;;13.00;5.68;;;20.50;37.10;;;;;;5125044;27;20555;-76
2021/04/29 08:36:29;;;;;;;9.05;5.10;;;20.50;37.00;;;;;;5143128;27;20024;-77
2021/04/29 08:38:56;;;;;;;9.77;5.10;;;20.50;36.80;;;;;;5141505;27;20020;-76
2021/04/29 08:41:21;;;;;;;7.00;4.78;;;20.70;36.90;;;;;;5143791;27;20465;-78
2021/04/29 08:43:47;;;;;;;5.72;4.90;;;21.10;36.80;;;;;;5143063;27;20059;-76
2021/04/29 08:46:13;;;;;;;10.43;4.65;;;21.30;36.30;;;;;;5141481;27;20023;-77
2021/04/29 08:48:39;;;;;;;13.60;5.22;;;21.50;35.50;;;;;;5141898;27;20023;-77
2021/04/29 08:51:05;;;;;;;7.47;4.38;;;21.40;35.30;;;;;;5142576;27;20042;-77
2021/04/29 08:53:31;;;;;;;7.97;4.57;;;21.80;35.30;;;;;;5143427;27;20027;-77
2021/04/29 08:55:56;;;;;;;6.13;3.88;;;22.30;34.80;;;;;;5141680;27;20041;-78
2021/04/29 08:58:22;;;;;;;7.75;4.38;;;22.60;34.30;;;;;;5124738;27;20114;-76
2021/04/29 09:01:05;;;;;;;7.93;4.60;;;22.90;34.20;;;;;;5124550;27;20027;-76
2021/04/29 09:03:32;;;;;;;5.55;4.30;;;23.50;33.80;;;;;;5120531;28;20107;-76
2021/04/29 09:06:00;;;;;;;15.38;5.88;;;24.30;33.90;;;;;;5134144;28;20027;-75
2021/04/29 09:08:31;;;;;;;7.32;4.32;;;25.30;34.90;;;;;;5115488;28;20027;-76
2021/04/29 09:11:15;;;;;;;11.80;5.38;;;25.70;33.70;;;;;;5133012;28;20117;-76
2021/04/29 09:13:52;;;;;;;8.07;5.28;;;26.30;34.40;;;;;;5152255;27;20030;-76
2021/04/29 09:16:18;;;;;;;8.77;5.50;;;27.30;34.80;;;;;;5153937;27;20023;-76
2021/04/29 09:18:44;;;;;;;6.05;4.90;;;28.30;34.10;;;;;;5154222;27;20027;-76
2021/04/29 09:21:14;;;;;;;6.30;5.03;;;28.70;33.00;;;;;;5154162;27;20132;-76
2021/04/29 09:23:42;;;;;;;9.15;5.45;;;29.00;32.40;;;;;;5148100;27;20102;-76
2021/04/29 09:26:10;;;;;;;25.65;6.40;;;29.10;32.50;;;;;;5141865;27;20068;-76
2021/04/29 09:28:49;;;;;;;15.75;5.63;;;29.50;32.60;;;;;;5142550;27;20019;-76
2021/04/29 09:31:17;;;;;;;8.25;5.15;;;30.10;32.40;;;;;;5141969;27;20054;-77
2021/04/29 09:33:46;;;;;;;13.48;6.88;;;30.60;32.20;;;;;;5148172;27;20094;-77
2021/04/29 09:36:29;;;;;;;9.57;5.35;;;31.00;31.70;;;;;;5144967;27;20033;-77
2021/04/29 09:39:07;;;;;;;10.05;4.88;;;31.10;29.30;;;;;;5146352;27;20072;-83
2021/04/29 09:41:38;;;;;;;6.32;4.03;;;31.10;28.80;;;;;;5140210;27;20057;-76
2021/04/29 09:44:07;;;;;;;5.95;3.80;;;30.90;28.30;;;;;;5126429;27;20280;-77
2021/04/29 09:46:46;;;;;;;10.27;5.78;;;30.70;27.90;;;;;;5148450;27;20076;-76
2021/04/29 09:49:22;;;;;;;15.55;6.22;;;30.40;27.90;;;;;;5156485;27;20023;-77
2021/04/29 09:51:52;;;;;;;10.05;6.63;;;30.20;27.90;;;;;;5156466;27;20037;-78
2021/04/29 09:54:40;;;;;;;14.07;6.78;;;30.50;28.40;;;;;;5156689;27;20034;-77
2021/04/29 09:57:08;;;;;;;13.05;6.88;;;30.20;29.10;;;;;;5125594;27;20572;-76
2021/04/29 09:59:42;;;;;;;11.15;6.35;;;30.60;29.90;;;;;;5151240;27;20030;-78
2021/04/29 10:02:11;;;;;;;11.43;8.05;;;31.40;30.10;;;;;;5156467;27;20019;-78
2021/04/29 10:04:38;;;;;;;24.80;8.15;;;31.90;30.20;;;;;;5153985;27;20025;-75
2021/04/29 10:07:06;;;;;;;18.17;8.52;;;32.20;30.00;;;;;;5148291;27;20027;-80
2021/04/29 10:09:34;;;;;;;20.73;7.97;;;31.70;29.60;;;;;;5124510;27;20050;-78
2021/04/29 10:12:16;;;;;;;8.95;6.13;;;31.10;29.60;;;;;;5142905;27;20109;-80
2021/04/29 10:14:43;;;;;;;26.40;9.57;;;30.60;29.60;;;;;;5147620;27;20087;-77
2021/04/29 10:17:11;;;;;;;24.70;9.25;;;30.40;29.80;;;;;;5145582;27;20476;-77
2021/04/29 10:19:41;;;;;;;21.83;8.50;;;30.40;30.10;;;;;;5145596;27;20041;-77
2021/04/29 10:22:07;;;;;;;13.32;7.93;;;30.00;30.00;;;;;;5145437;27;20460;-77
2021/04/29 10:24:39;;;;;;;18.48;6.90;;;30.20;30.20;;;;;;5135359;27;20484;-76
2021/04/29 10:27:07;;;;;;;46.47;8.60;;;31.00;30.00;;;;;;5136089;27;20023;-76
2021/04/29 10:29:34;;;;;;;35.25;9.20;;;31.90;29.90;;;;;;5135665;27;20051;-77
2021/04/29 10:32:01;;;;;;;15.18;7.30;;;32.80;29.50;;;;;;5135939;27;20114;-77
2021/04/29 10:34:43;;;;;;;36.00;8.55;;;33.30;29.10;;;;;;5135792;27;20102;-77
2021/04/29 10:37:18;;;;;;;41.83;9.07;;;33.00;28.70;;;;;;5135177;27;20030;-75
2021/04/29 10:40:11;;;;;;;16.63;7.28;;;32.20;28.60;;;;;;5155318;27;20058;-77
2021/04/29 10:42:45;;;;;;;15.30;7.55;;;31.10;28.80;;;;;;5143128;27;20143;-77
2021/04/29 10:45:12;;;;;;;9.60;5.50;;;30.60;29.10;;;;;;5117435;27;20103;-76
2021/04/29 10:47:39;;;;;;;73.18;8.85;;;31.20;29.20;;;;;;5135827;27;20026;-77
2021/04/29 10:50:09;;;;;;;48.17;8.35;;;32.20;28.90;;;;;;5135619;27;20035;-79
2021/04/29 10:53:01;;;;;;;18.80;6.35;;;32.70;28.40;;;;;;5144941;27;20366;-77
2021/04/29 10:55:29;;;;;;;20.55;7.57;;;33.50;28.30;;;;;;5149331;27;20050;-76
2021/04/29 10:57:56;;;;;;;16.15;7.07;;;34.30;28.30;;;;;;5144821;27;20031;-76
2021/04/29 11:00:25;;;;;;;21.48;6.90;;;34.70;28.00;;;;;;5145194;27;20160;-77
2021/04/29 11:03:04;;;;;;;13.90;6.32;;;34.20;27.50;;;;;;5143876;27;20048;-77
2021/04/29 11:05:32;;;;;;;9.35;4.90;;;33.80;27.50;;;;;;5134760;27;20528;-77
2021/04/29 11:08:09;;;;;;;24.88;6.85;;;33.90;27.70;;;;;;5135130;27;20472;-77
2021/04/29 11:10:37;;;;;;;17.23;6.72;;;34.20;28.10;;;;;;5135173;27;20027;-78
2021/04/29 11:13:04;;;;;;;20.65;5.80;;;34.50;27.60;;;;;;5148578;27;20060;-77
2021/04/29 11:15:32;;;;;;;9.85;4.68;;;34.90;27.30;;;;;;5155932;27;20479;-77
2021/04/29 11:18:11;;;;;;;71.95;8.77;;;35.30;27.00;;;;;;5155839;27;20026;-77
2021/04/29 11:20:59;;;;;;;18.80;5.10;;;35.50;26.80;;;;;;5155864;27;20030;-77
2021/04/29 11:23:27;;;;;;;26.80;6.35;;;35.80;26.50;;;;;;5155699;27;20079;-77
2021/04/29 11:26:16;;;;;;;8.93;4.95;;;36.00;26.50;;;;;;5155667;27;20014;-78
2021/04/29 11:28:43;;;;;;;10.07;5.10;;;36.10;26.40;;;;;;5155396;27;20387;-77
2021/04/29 11:31:09;;;;;;;12.10;4.90;;;36.10;26.50;;;;;;5155239;27;20023;-77
2021/04/29 11:33:43;;;;;;;22.13;5.97;;;36.20;26.30;;;;;;5154995;27;20387;-77
2021/04/29 11:36:26;;;;;;;15.55;5.53;;;36.30;26.20;;;;;;5146862;27;20484;-77
2021/04/29 11:39:00;;;;;;;11.67;4.70;;;36.50;26.20;;;;;;5151732;27;20441;-78
2021/04/29 11:41:28;;;;;;;11.80;4.90;;;36.70;26.10;;;;;;5149185;27;20258;-77
2021/04/29 11:44:05;;;;;;;12.15;5.10;;;36.70;26.00;;;;;;5155419;27;20047;-77
2021/04/29 11:46:33;;;;;;;9.10;5.25;;;36.90;25.90;;;;;;5154946;27;20472;-77
2021/04/29 11:49:07;;;;;;;10.38;4.70;;;37.00;25.90;;;;;;5151638;27;20110;-80
2021/04/29 11:51:42;;;;;;;12.27;4.82;;;37.00;25.70;;;;;;5132549;27;20105;-78
2021/04/29 11:54:09;;;;;;;14.43;5.28;;;37.10;25.70;;;;;;5138025;27;20415;-77
2021/04/29 11:56:41;;;;;;;9.65;4.20;;;37.20;25.80;;;;;;5132501;27;20034;-78
2021/04/29 11:59:10;;;;;;;9.37;4.20;;;37.30;25.70;;;;;;5154432;27;20464;-77
2021/04/29 12:01:37;;;;;;;5.90;4.32;;;37.50;25.60;;;;;;5145804;27;20058;-77
2021/04/29 12:04:20;;;;;;;6.80;4.05;;;37.60;25.50;;;;;;5133444;27;20073;-77
2021/04/29 12:06:55;;;;;;;7.82;4.47;;;37.60;25.30;;;;;;5114686;27;20525;-77
2021/04/29 12:09:22;;;;;;;9.82;4.57;;;37.70;25.40;;;;;;5138929;27;20034;-76
2021/04/29 12:11:49;;;;;;;13.77;5.22;;;37.50;25.40;;;;;;5154635;27;20041;-77
2021/04/29 12:14:25;;;;;;;8.32;4.32;;;37.40;25.50;;;;;;5149649;27;20026;-78
2021/04/29 12:16:58;;;;;;;9.50;5.45;;;37.30;25.30;;;;;;5137030;27;20048;-77
2021/04/29 12:19:29;;;;;;;9.55;4.38;;;37.20;25.40;;;;;;5153510;27;20031;-77
2021/04/29 12:21:56;;;;;;;6.68;4.07;;;37.40;25.50;;;;;;5154719;27;20034;-77
2021/04/29 12:27:43;;;;;;;6.13;4.43;;;37.80;25.20;;;;;;5144734;27;20049;-77
2021/04/29 12:30:10;;;;;;;15.32;4.85;;;36.80;25.20;;;;;;5154606;27;20042;-77
2021/04/29 12:32:38;;;;;;;6.82;4.40;;;36.30;25.30;;;;;;5154391;27;20384;-77
2021/04/29 12:35:05;;;;;;;19.00;5.22;;;35.80;25.30;;;;;;5154924;27;20109;-77
2021/04/29 12:37:31;;;;;;;7.18;4.10;;;35.70;25.50;;;;;;5151499;27;20025;-76
2021/04/29 12:39:57;;;;;;;11.68;3.97;;;35.80;25.60;;;;;;5135724;27;20026;-77
2021/04/29 12:42:24;;;;;;;7.63;3.80;;;35.60;25.50;;;;;;5154098;27;20027;-77
2021/04/29 12:44:56;;;;;;;7.68;3.90;;;35.30;25.60;;;;;;5154225;27;20050;-77